Terminal Aerodrome Forecast
Issued by NWS

Home | Current Version | Previous Version | Graphics & Text | Print | Product List | Glossary Off
Versions: 1 2 3 4 5 6 7 8 9 10 11 12 13 14

000
FTUS45 KGGW 270716 AAB
TAFGDV
TAF AMD
KGDV 270716Z 2707/2806 VRB15KT P6SM TSRA BKN100CB
     FM270800 01011KT P6SM -TSRA BKN090CB
     FM270900 01010KT P6SM -SHRA BKN070
     FM271100 03010KT P6SM VCSH BKN035
     FM271200 35009KT P6SM BKN045=

USA.gov is the U.S. government's official web portal to all federal, state and local government web resources and services.